sensor_id;sensor_type;location;lat;lon;timestamp;P1;durP1;ratioP1;P2;durP2;ratioP2
16314;SDS011;8266;52.150;4.768;2022-11-04T00:01:05;0.63;;;0.32;;
16314;SDS011;8266;52.150;4.768;2022-11-04T00:03:33;2.05;;;0.43;;
16314;SDS011;8266;52.150;4.768;2022-11-04T00:06:00;1.27;;;0.50;;
16314;SDS011;8266;52.150;4.768;2022-11-04T00:08:28;1.10;;;0.50;;
16314;SDS011;8266;52.150;4.768;2022-11-04T00:10:55;1.52;;;0.85;;
16314;SDS011;8266;52.150;4.768;2022-11-04T00:13:40;3.13;;;0.47;;
16314;SDS011;8266;52.150;4.768;2022-11-04T00:16:07;4.85;;;0.50;;
16314;SDS011;8266;52.150;4.768;2022-11-04T00:18:53;1.52;;;0.43;;
16314;SDS011;8266;52.150;4.768;2022-11-04T00:21:20;2.20;;;0.63;;
16314;SDS011;8266;52.150;4.768;2022-11-04T00:24:05;1.60;;;0.50;;
16314;SDS011;8266;52.150;4.768;2022-11-04T00:26:51;1.20;;;0.40;;
16314;SDS011;8266;52.150;4.768;2022-11-04T00:29:35;2.45;;;0.30;;
16314;SDS011;8266;52.150;4.768;2022-11-04T00:32:03;1.88;;;0.50;;
16314;SDS011;8266;52.150;4.768;2022-11-04T00:34:48;1.80;;;0.40;;
16314;SDS011;8266;52.150;4.768;2022-11-04T00:37:15;1.55;;;0.40;;
16314;SDS011;8266;52.150;4.768;2022-11-04T00:39:42;0.93;;;0.32;;
16314;SDS011;8266;52.150;4.768;2022-11-04T00:42:09;1.52;;;0.40;;
16314;SDS011;8266;52.150;4.768;2022-11-04T00:44:36;2.15;;;0.73;;
16314;SDS011;8266;52.150;4.768;2022-11-04T00:47:03;1.05;;;0.40;;
16314;SDS011;8266;52.150;4.768;2022-11-04T00:49:30;1.65;;;0.35;;
16314;SDS011;8266;52.150;4.768;2022-11-04T00:51:58;1.10;;;0.40;;
16314;SDS011;8266;52.150;4.768;2022-11-04T00:54:25;2.20;;;0.30;;
16314;SDS011;8266;52.150;4.768;2022-11-04T00:56:52;0.98;;;0.40;;
16314;SDS011;8266;52.150;4.768;2022-11-04T00:59:19;1.25;;;0.52;;
16314;SDS011;8266;52.150;4.768;2022-11-04T01:01:46;1.13;;;0.57;;
16314;SDS011;8266;52.150;4.768;2022-11-04T01:04:13;1.27;;;0.50;;
16314;SDS011;8266;52.150;4.768;2022-11-04T01:06:40;1.27;;;0.30;;
16314;SDS011;8266;52.150;4.768;2022-11-04T01:09:10;1.85;;;0.28;;
16314;SDS011;8266;52.150;4.768;2022-11-04T01:11:38;0.35;;;0.30;;
16314;SDS011;8266;52.150;4.768;2022-11-04T01:14:05;2.00;;;0.40;;
16314;SDS011;8266;52.150;4.768;2022-11-04T01:16:32;0.50;;;0.22;;
16314;SDS011;8266;52.150;4.768;2022-11-04T01:18:59;2.08;;;0.40;;
16314;SDS011;8266;52.150;4.768;2022-11-04T01:21:26;1.08;;;0.30;;
16314;SDS011;8266;52.150;4.768;2022-11-04T01:23:53;0.75;;;0.28;;
16314;SDS011;8266;52.150;4.768;2022-11-04T01:26:22;1.63;;;0.43;;
16314;SDS011;8266;52.150;4.768;2022-11-04T01:28:50;0.63;;;0.30;;
16314;SDS011;8266;52.150;4.768;2022-11-04T01:31:20;0.65;;;0.30;;
16314;SDS011;8266;52.150;4.768;2022-11-04T01:33:49;1.65;;;0.40;;
16314;SDS011;8266;52.150;4.768;2022-11-04T01:36:17;1.05;;;0.20;;
16314;SDS011;8266;52.150;4.768;2022-11-04T01:38:45;0.85;;;0.13;;
16314;SDS011;8266;52.150;4.768;2022-11-04T01:41:15;1.33;;;0.40;;
16314;SDS011;8266;52.150;4.768;2022-11-04T01:43:47;1.13;;;0.32;;
16314;SDS011;8266;52.150;4.768;2022-11-04T01:46:19;1.38;;;0.28;;
16314;SDS011;8266;52.150;4.768;2022-11-04T01:48:52;2.35;;;0.30;;
16314;SDS011;8266;52.150;4.768;2022-11-04T01:51:24;0.77;;;0.28;;
16314;SDS011;8266;52.150;4.768;2022-11-04T01:53:52;0.57;;;0.30;;
16314;SDS011;8266;52.150;4.768;2022-11-04T01:56:21;2.53;;;0.40;;
16314;SDS011;8266;52.150;4.768;2022-11-04T01:58:52;1.48;;;0.63;;
16314;SDS011;8266;52.150;4.768;2022-11-04T02:01:22;0.93;;;0.30;;
16314;SDS011;8266;52.150;4.768;2022-11-04T02:03:50;2.67;;;0.70;;
16314;SDS011;8266;52.150;4.768;2022-11-04T02:06:21;1.10;;;0.40;;
16314;SDS011;8266;52.150;4.768;2022-11-04T02:08:48;1.63;;;0.60;;
16314;SDS011;8266;52.150;4.768;2022-11-04T02:11:15;1.00;;;0.20;;
16314;SDS011;8266;52.150;4.768;2022-11-04T02:13:57;1.33;;;0.50;;
16314;SDS011;8266;52.150;4.768;2022-11-04T02:16:27;2.40;;;0.40;;
16314;SDS011;8266;52.150;4.768;2022-11-04T02:19:05;1.90;;;0.50;;
16314;SDS011;8266;52.150;4.768;2022-11-04T02:21:54;2.80;;;0.40;;
16314;SDS011;8266;52.150;4.768;2022-11-04T02:24:53;1.65;;;0.50;;
16314;SDS011;8266;52.150;4.768;2022-11-04T02:27:35;1.48;;;0.45;;
16314;SDS011;8266;52.150;4.768;2022-11-04T02:30:13;0.70;;;0.40;;
16314;SDS011;8266;52.150;4.768;2022-11-04T02:32:55;1.38;;;0.47;;
16314;SDS011;8266;52.150;4.768;2022-11-04T02:35:42;1.35;;;0.43;;
16314;SDS011;8266;52.150;4.768;2022-11-04T02:38:18;1.42;;;0.40;;
16314;SDS011;8266;52.150;4.768;2022-11-04T02:40:56;1.17;;;0.47;;
16314;SDS011;8266;52.150;4.768;2022-11-04T02:43:32;1.00;;;0.40;;
16314;SDS011;8266;52.150;4.768;2022-11-04T02:46:08;1.85;;;0.57;;
16314;SDS011;8266;52.150;4.768;2022-11-04T02:48:43;2.58;;;0.47;;
16314;SDS011;8266;52.150;4.768;2022-11-04T02:51:14;1.23;;;0.52;;
16314;SDS011;8266;52.150;4.768;2022-11-04T02:53:45;1.80;;;0.68;;
16314;SDS011;8266;52.150;4.768;2022-11-04T02:56:16;2.00;;;0.40;;
16314;SDS011;8266;52.150;4.768;2022-11-04T02:58:47;0.50;;;0.40;;
16314;SDS011;8266;52.150;4.768;2022-11-04T03:01:20;0.82;;;0.60;;
16314;SDS011;8266;52.150;4.768;2022-11-04T03:03:52;1.80;;;0.82;;
16314;SDS011;8266;52.150;4.768;2022-11-04T03:06:25;1.15;;;0.70;;
16314;SDS011;8266;52.150;4.768;2022-11-04T03:08:53;0.77;;;0.77;;
16314;SDS011;8266;52.150;4.768;2022-11-04T03:11:23;2.45;;;1.20;;
16314;SDS011;8266;52.150;4.768;2022-11-04T03:13:53;2.58;;;1.10;;
16314;SDS011;8266;52.150;4.768;2022-11-04T03:16:28;2.95;;;1.10;;
16314;SDS011;8266;52.150;4.768;2022-11-04T03:19:00;1.65;;;1.05;;
16314;SDS011;8266;52.150;4.768;2022-11-04T03:21:34;1.73;;;1.23;;
16314;SDS011;8266;52.150;4.768;2022-11-04T03:24:05;2.05;;;1.25;;
16314;SDS011;8266;52.150;4.768;2022-11-04T03:26:32;2.45;;;1.50;;
16314;SDS011;8266;52.150;4.768;2022-11-04T03:29:11;2.33;;;1.60;;
16314;SDS011;8266;52.150;4.768;2022-11-04T03:31:48;2.13;;;1.40;;
16314;SDS011;8266;52.150;4.768;2022-11-04T03:34:22;2.85;;;1.65;;
16314;SDS011;8266;52.150;4.768;2022-11-04T03:36:50;2.22;;;1.45;;
16314;SDS011;8266;52.150;4.768;2022-11-04T03:39:17;2.85;;;1.70;;
16314;SDS011;8266;52.150;4.768;2022-11-04T03:41:45;2.53;;;1.70;;
16314;SDS011;8266;52.150;4.768;2022-11-04T03:44:15;2.00;;;1.67;;
16314;SDS011;8266;52.150;4.768;2022-11-04T03:46:42;2.67;;;1.70;;
16314;SDS011;8266;52.150;4.768;2022-11-04T03:49:11;2.15;;;1.70;;
16314;SDS011;8266;52.150;4.768;2022-11-04T03:51:38;3.45;;;2.00;;
16314;SDS011;8266;52.150;4.768;2022-11-04T03:54:05;1.90;;;1.67;;
16314;SDS011;8266;52.150;4.768;2022-11-04T03:59:42;2.90;;;1.92;;
16314;SDS011;8266;52.150;4.768;2022-11-04T04:02:25;2.88;;;2.17;;
16314;SDS011;8266;52.150;4.768;2022-11-04T04:05:02;2.65;;;2.28;;
16314;SDS011;8266;52.150;4.768;2022-11-04T04:07:36;4.18;;;2.20;;
16314;SDS011;8266;52.150;4.768;2022-11-04T04:10:08;2.92;;;1.98;;
16314;SDS011;8266;52.150;4.768;2022-11-04T04:12:56;2.45;;;2.17;;
16314;SDS011;8266;52.150;4.768;2022-11-04T04:15:25;2.40;;;2.05;;
16314;SDS011;8266;52.150;4.768;2022-11-04T04:17:57;2.78;;;1.80;;
16314;SDS011;8266;52.150;4.768;2022-11-04T04:20:30;4.13;;;2.67;;
16314;SDS011;8266;52.150;4.768;2022-11-04T04:23:00;2.85;;;2.58;;
16314;SDS011;8266;52.150;4.768;2022-11-04T04:25:50;3.10;;;2.47;;
16314;SDS011;8266;52.150;4.768;2022-11-04T04:28:35;3.22;;;2.92;;
16314;SDS011;8266;52.150;4.768;2022-11-04T04:31:03;5.95;;;3.60;;
16314;SDS011;8266;52.150;4.768;2022-11-04T04:33:31;4.13;;;3.70;;
16314;SDS011;8266;52.150;4.768;2022-11-04T04:36:00;5.57;;;3.55;;
16314;SDS011;8266;52.150;4.768;2022-11-04T04:38:28;3.83;;;3.40;;
16314;SDS011;8266;52.150;4.768;2022-11-04T04:41:29;4.88;;;3.53;;
16314;SDS011;8266;52.150;4.768;2022-11-04T04:44:16;6.95;;;4.35;;
16314;SDS011;8266;52.150;4.768;2022-11-04T04:47:06;7.60;;;5.15;;
16314;SDS011;8266;52.150;4.768;2022-11-04T04:49:36;12.23;;;6.28;;
16314;SDS011;8266;52.150;4.768;2022-11-04T04:52:15;8.35;;;5.55;;
16314;SDS011;8266;52.150;4.768;2022-11-04T04:54:42;7.97;;;5.78;;
16314;SDS011;8266;52.150;4.768;2022-11-04T04:57:10;6.57;;;5.72;;
16314;SDS011;8266;52.150;4.768;2022-11-04T04:59:37;7.95;;;6.90;;
16314;SDS011;8266;52.150;4.768;2022-11-04T05:02:04;8.52;;;6.40;;
16314;SDS011;8266;52.150;4.768;2022-11-04T05:04:30;9.02;;;6.90;;
16314;SDS011;8266;52.150;4.768;2022-11-04T05:06:57;8.68;;;6.53;;
16314;SDS011;8266;52.150;4.768;2022-11-04T05:09:26;9.52;;;6.45;;
16314;SDS011;8266;52.150;4.768;2022-11-04T05:11:53;11.38;;;7.78;;
16314;SDS011;8266;52.150;4.768;2022-11-04T05:14:20;9.15;;;7.18;;
16314;SDS011;8266;52.150;4.768;2022-11-04T05:16:46;7.80;;;7.00;;
16314;SDS011;8266;52.150;4.768;2022-11-04T05:19:14;8.10;;;6.68;;
16314;SDS011;8266;52.150;4.768;2022-11-04T05:21:40;8.35;;;7.53;;
16314;SDS011;8266;52.150;4.768;2022-11-04T05:24:08;8.38;;;7.53;;
16314;SDS011;8266;52.150;4.768;2022-11-04T05:26:37;8.43;;;7.60;;
16314;SDS011;8266;52.150;4.768;2022-11-04T05:29:04;8.60;;;6.85;;
16314;SDS011;8266;52.150;4.768;2022-11-04T05:31:31;7.78;;;6.95;;
16314;SDS011;8266;52.150;4.768;2022-11-04T05:33:58;7.05;;;6.35;;
16314;SDS011;8266;52.150;4.768;2022-11-04T05:36:25;8.27;;;7.47;;
16314;SDS011;8266;52.150;4.768;2022-11-04T05:38:52;10.23;;;7.72;;
16314;SDS011;8266;52.150;4.768;2022-11-04T05:41:20;9.35;;;7.82;;
16314;SDS011;8266;52.150;4.768;2022-11-04T05:43:52;10.60;;;8.32;;
16314;SDS011;8266;52.150;4.768;2022-11-04T05:46:19;11.52;;;7.95;;
16314;SDS011;8266;52.150;4.768;2022-11-04T05:48:47;10.38;;;8.15;;
16314;SDS011;8266;52.150;4.768;2022-11-04T05:51:13;9.85;;;8.00;;
16314;SDS011;8266;52.150;4.768;2022-11-04T05:53:41;10.70;;;8.30;;
16314;SDS011;8266;52.150;4.768;2022-11-04T05:56:09;12.48;;;7.82;;
16314;SDS011;8266;52.150;4.768;2022-11-04T05:58:35;9.98;;;7.50;;
16314;SDS011;8266;52.150;4.768;2022-11-04T06:01:21;9.15;;;8.07;;
16314;SDS011;8266;52.150;4.768;2022-11-04T06:03:50;9.60;;;7.97;;
16314;SDS011;8266;52.150;4.768;2022-11-04T06:06:18;11.00;;;8.15;;
16314;SDS011;8266;52.150;4.768;2022-11-04T06:08:45;10.10;;;8.07;;
16314;SDS011;8266;52.150;4.768;2022-11-04T06:11:12;9.93;;;7.80;;
16314;SDS011;8266;52.150;4.768;2022-11-04T06:13:39;9.25;;;7.55;;
16314;SDS011;8266;52.150;4.768;2022-11-04T06:16:06;8.93;;;7.72;;
16314;SDS011;8266;52.150;4.768;2022-11-04T06:18:35;9.73;;;7.65;;
16314;SDS011;8266;52.150;4.768;2022-11-04T06:21:06;9.77;;;8.02;;
16314;SDS011;8266;52.150;4.768;2022-11-04T06:23:34;9.65;;;7.38;;
16314;SDS011;8266;52.150;4.768;2022-11-04T06:26:01;9.13;;;7.47;;
16314;SDS011;8266;52.150;4.768;2022-11-04T06:28:31;9.70;;;7.55;;
16314;SDS011;8266;52.150;4.768;2022-11-04T06:30:58;8.60;;;7.32;;
16314;SDS011;8266;52.150;4.768;2022-11-04T06:33:27;9.45;;;7.80;;
16314;SDS011;8266;52.150;4.768;2022-11-04T06:35:57;10.05;;;7.82;;
16314;SDS011;8266;52.150;4.768;2022-11-04T06:38:24;10.13;;;6.88;;
16314;SDS011;8266;52.150;4.768;2022-11-04T06:40:52;10.65;;;7.15;;
16314;SDS011;8266;52.150;4.768;2022-11-04T06:43:20;8.48;;;6.55;;
16314;SDS011;8266;52.150;4.768;2022-11-04T06:45:51;8.48;;;6.20;;
16314;SDS011;8266;52.150;4.768;2022-11-04T06:48:19;8.80;;;6.50;;
16314;SDS011;8266;52.150;4.768;2022-11-04T06:50:46;6.78;;;5.88;;
16314;SDS011;8266;52.150;4.768;2022-11-04T06:53:14;7.32;;;5.80;;
16314;SDS011;8266;52.150;4.768;2022-11-04T06:55:41;6.57;;;5.35;;
16314;SDS011;8266;52.150;4.768;2022-11-04T06:58:09;7.53;;;5.97;;
16314;SDS011;8266;52.150;4.768;2022-11-04T07:00:36;7.57;;;5.45;;
16314;SDS011;8266;52.150;4.768;2022-11-04T07:03:03;8.85;;;5.85;;
16314;SDS011;8266;52.150;4.768;2022-11-04T07:05:31;7.57;;;5.20;;
16314;SDS011;8266;52.150;4.768;2022-11-04T07:07:58;6.10;;;4.90;;
16314;SDS011;8266;52.150;4.768;2022-11-04T07:10:26;8.38;;;5.32;;
16314;SDS011;8266;52.150;4.768;2022-11-04T07:12:53;8.45;;;5.95;;
16314;SDS011;8266;52.150;4.768;2022-11-04T07:15:20;8.57;;;5.70;;
16314;SDS011;8266;52.150;4.768;2022-11-04T07:17:47;9.00;;;5.40;;
16314;SDS011;8266;52.150;4.768;2022-11-04T07:20:14;6.22;;;5.45;;
16314;SDS011;8266;52.150;4.768;2022-11-04T07:22:41;6.03;;;5.28;;
16314;SDS011;8266;52.150;4.768;2022-11-04T07:25:08;11.35;;;5.22;;
16314;SDS011;8266;52.150;4.768;2022-11-04T07:27:37;6.75;;;5.45;;
16314;SDS011;8266;52.150;4.768;2022-11-04T07:30:04;9.35;;;5.32;;
16314;SDS011;8266;52.150;4.768;2022-11-04T07:32:32;8.40;;;5.22;;
16314;SDS011;8266;52.150;4.768;2022-11-04T07:34:59;7.07;;;5.18;;
16314;SDS011;8266;52.150;4.768;2022-11-04T07:37:26;13.30;;;4.82;;
16314;SDS011;8266;52.150;4.768;2022-11-04T07:39:53;8.30;;;5.68;;
16314;SDS011;8266;52.150;4.768;2022-11-04T07:42:20;5.78;;;5.20;;
16314;SDS011;8266;52.150;4.768;2022-11-04T07:44:48;6.13;;;5.05;;
16314;SDS011;8266;52.150;4.768;2022-11-04T07:47:15;6.20;;;4.97;;
16314;SDS011;8266;52.150;4.768;2022-11-04T07:49:42;8.85;;;5.00;;
16314;SDS011;8266;52.150;4.768;2022-11-04T07:52:09;8.00;;;5.53;;
16314;SDS011;8266;52.150;4.768;2022-11-04T07:54:36;6.13;;;4.63;;
16314;SDS011;8266;52.150;4.768;2022-11-04T07:57:03;7.00;;;4.60;;
16314;SDS011;8266;52.150;4.768;2022-11-04T07:59:30;6.95;;;4.72;;
16314;SDS011;8266;52.150;4.768;2022-11-04T08:01:59;7.25;;;4.60;;
16314;SDS011;8266;52.150;4.768;2022-11-04T08:04:26;7.30;;;4.65;;
16314;SDS011;8266;52.150;4.768;2022-11-04T08:06:53;10.65;;;4.80;;
16314;SDS011;8266;52.150;4.768;2022-11-04T08:09:20;5.10;;;4.45;;
16314;SDS011;8266;52.150;4.768;2022-11-04T08:11:47;7.35;;;5.00;;
16314;SDS011;8266;52.150;4.768;2022-11-04T08:14:14;8.50;;;4.72;;
16314;SDS011;8266;52.150;4.768;2022-11-04T08:16:41;6.60;;;4.55;;
16314;SDS011;8266;52.150;4.768;2022-11-04T08:19:10;7.53;;;4.20;;
16314;SDS011;8266;52.150;4.768;2022-11-04T08:21:37;6.97;;;4.85;;
16314;SDS011;8266;52.150;4.768;2022-11-04T08:24:04;7.00;;;4.20;;
16314;SDS011;8266;52.150;4.768;2022-11-04T08:26:31;4.78;;;4.03;;
16314;SDS011;8266;52.150;4.768;2022-11-04T08:28:58;7.50;;;4.20;;
16314;SDS011;8266;52.150;4.768;2022-11-04T08:31:27;7.32;;;3.63;;
16314;SDS011;8266;52.150;4.768;2022-11-04T08:33:55;5.10;;;3.90;;
16314;SDS011;8266;52.150;4.768;2022-11-04T08:36:25;4.60;;;3.83;;
16314;SDS011;8266;52.150;4.768;2022-11-04T08:38:53;5.93;;;3.65;;
16314;SDS011;8266;52.150;4.768;2022-11-04T08:41:22;5.60;;;3.60;;
16314;SDS011;8266;52.150;4.768;2022-11-04T08:43:50;4.38;;;3.25;;
16314;SDS011;8266;52.150;4.768;2022-11-04T08:46:18;5.70;;;3.15;;
16314;SDS011;8266;52.150;4.768;2022-11-04T08:48:45;3.72;;;2.88;;
16314;SDS011;8266;52.150;4.768;2022-11-04T08:51:14;5.28;;;3.80;;
16314;SDS011;8266;52.150;4.768;2022-11-04T08:53:43;4.88;;;3.60;;
16314;SDS011;8266;52.150;4.768;2022-11-04T08:56:11;6.30;;;3.83;;
16314;SDS011;8266;52.150;4.768;2022-11-04T08:58:40;5.95;;;3.33;;
16314;SDS011;8266;52.150;4.768;2022-11-04T09:01:08;5.38;;;3.88;;
16314;SDS011;8266;52.150;4.768;2022-11-04T09:03:36;3.75;;;3.42;;
16314;SDS011;8266;52.150;4.768;2022-11-04T09:06:04;5.28;;;3.85;;
16314;SDS011;8266;52.150;4.768;2022-11-04T09:08:33;6.45;;;3.70;;
16314;SDS011;8266;52.150;4.768;2022-11-04T09:11:04;5.65;;;3.88;;
16314;SDS011;8266;52.150;4.768;2022-11-04T09:13:32;4.07;;;3.30;;
16314;SDS011;8266;52.150;4.768;2022-11-04T09:15:59;6.65;;;4.38;;
16314;SDS011;8266;52.150;4.768;2022-11-04T09:18:26;5.47;;;3.38;;
16314;SDS011;8266;52.150;4.768;2022-11-04T09:20:53;5.45;;;3.40;;
16314;SDS011;8266;52.150;4.768;2022-11-04T09:23:20;4.93;;;3.35;;
16314;SDS011;8266;52.150;4.768;2022-11-04T09:25:47;5.18;;;3.13;;
16314;SDS011;8266;52.150;4.768;2022-11-04T09:28:15;5.03;;;3.70;;
16314;SDS011;8266;52.150;4.768;2022-11-04T09:30:42;4.43;;;3.17;;
16314;SDS011;8266;52.150;4.768;2022-11-04T09:33:09;4.25;;;3.00;;
16314;SDS011;8266;52.150;4.768;2022-11-04T09:35:36;4.20;;;2.60;;
16314;SDS011;8266;52.150;4.768;2022-11-04T09:38:03;5.35;;;3.35;;
16314;SDS011;8266;52.150;4.768;2022-11-04T09:40:32;5.70;;;3.30;;
16314;SDS011;8266;52.150;4.768;2022-11-04T09:43:04;3.05;;;2.72;;
16314;SDS011;8266;52.150;4.768;2022-11-04T09:45:40;4.97;;;2.97;;
16314;SDS011;8266;52.150;4.768;2022-11-04T09:48:10;5.47;;;2.97;;
16314;SDS011;8266;52.150;4.768;2022-11-04T09:50:45;2.65;;;2.22;;
16314;SDS011;8266;52.150;4.768;2022-11-04T09:53:16;3.80;;;2.88;;
16314;SDS011;8266;52.150;4.768;2022-11-04T09:55:48;3.80;;;2.60;;
16314;SDS011;8266;52.150;4.768;2022-11-04T09:58:19;3.33;;;2.90;;
16314;SDS011;8266;52.150;4.768;2022-11-04T10:00:49;3.60;;;2.55;;
16314;SDS011;8266;52.150;4.768;2022-11-04T10:03:25;4.13;;;2.25;;
16314;SDS011;8266;52.150;4.768;2022-11-04T10:06:10;3.63;;;2.63;;
16314;SDS011;8266;52.150;4.768;2022-11-04T10:09:04;3.55;;;2.80;;
16314;SDS011;8266;52.150;4.768;2022-11-04T10:11:47;4.38;;;2.83;;
16314;SDS011;8266;52.150;4.768;2022-11-04T10:14:31;4.72;;;2.92;;
16314;SDS011;8266;52.150;4.768;2022-11-04T10:17:10;3.10;;;2.72;;
16314;SDS011;8266;52.150;4.768;2022-11-04T10:19:51;3.53;;;2.90;;
16314;SDS011;8266;52.150;4.768;2022-11-04T10:22:30;4.20;;;2.83;;
16314;SDS011;8266;52.150;4.768;2022-11-04T10:25:02;3.13;;;2.42;;
16314;SDS011;8266;52.150;4.768;2022-11-04T10:27:35;4.43;;;2.58;;
16314;SDS011;8266;52.150;4.768;2022-11-04T10:30:05;4.30;;;2.15;;
16314;SDS011;8266;52.150;4.768;2022-11-04T10:32:46;3.35;;;2.30;;
16314;SDS011;8266;52.150;4.768;2022-11-04T10:35:21;4.05;;;3.00;;
16314;SDS011;8266;52.150;4.768;2022-11-04T10:37:54;4.78;;;3.45;;
16314;SDS011;8266;52.150;4.768;2022-11-04T10:40:24;5.57;;;3.22;;
16314;SDS011;8266;52.150;4.768;2022-11-04T10:42:54;4.07;;;2.85;;
16314;SDS011;8266;52.150;4.768;2022-11-04T10:45:26;4.35;;;3.20;;
16314;SDS011;8266;52.150;4.768;2022-11-04T10:48:05;4.22;;;2.83;;
16314;SDS011;8266;52.150;4.768;2022-11-04T10:50:37;4.65;;;3.50;;
16314;SDS011;8266;52.150;4.768;2022-11-04T10:53:08;3.78;;;2.70;;
16314;SDS011;8266;52.150;4.768;2022-11-04T10:55:38;4.43;;;3.13;;
16314;SDS011;8266;52.150;4.768;2022-11-04T10:58:15;5.03;;;3.30;;
16314;SDS011;8266;52.150;4.768;2022-11-04T11:00:45;4.38;;;2.70;;
16314;SDS011;8266;52.150;4.768;2022-11-04T11:03:23;4.45;;;2.90;;
16314;SDS011;8266;52.150;4.768;2022-11-04T11:06:08;2.25;;;1.40;;
16314;SDS011;8266;52.150;4.768;2022-11-04T11:08:38;1.33;;;0.40;;
16314;SDS011;8266;52.150;4.768;2022-11-04T11:11:07;0.52;;;0.22;;
16314;SDS011;8266;52.150;4.768;2022-11-04T11:13:35;3.35;;;0.47;;
16314;SDS011;8266;52.150;4.768;2022-11-04T11:16:08;2.03;;;0.50;;
16314;SDS011;8266;52.150;4.768;2022-11-04T11:18:38;2.30;;;0.30;;
16314;SDS011;8266;52.150;4.768;2022-11-04T11:21:08;1.05;;;0.35;;
16314;SDS011;8266;52.150;4.768;2022-11-04T11:23:39;1.98;;;0.30;;
16314;SDS011;8266;52.150;4.768;2022-11-04T11:26:08;0.95;;;0.30;;
16314;SDS011;8266;52.150;4.768;2022-11-04T11:28:37;1.95;;;0.82;;
16314;SDS011;8266;52.150;4.768;2022-11-04T11:31:06;0.88;;;0.70;;
16314;SDS011;8266;52.150;4.768;2022-11-04T11:33:44;0.68;;;0.63;;
16314;SDS011;8266;52.150;4.768;2022-11-04T11:36:18;0.93;;;0.65;;
16314;SDS011;8266;52.150;4.768;2022-11-04T11:38:51;1.35;;;0.90;;
16314;SDS011;8266;52.150;4.768;2022-11-04T11:41:21;1.60;;;0.73;;
16314;SDS011;8266;52.150;4.768;2022-11-04T11:43:55;0.63;;;0.55;;
16314;SDS011;8266;52.150;4.768;2022-11-04T11:46:26;1.05;;;0.80;;
16314;SDS011;8266;52.150;4.768;2022-11-04T11:48:57;1.70;;;0.80;;
16314;SDS011;8266;52.150;4.768;2022-11-04T11:51:27;2.00;;;0.90;;
16314;SDS011;8266;52.150;4.768;2022-11-04T11:53:59;1.23;;;0.52;;
16314;SDS011;8266;52.150;4.768;2022-11-04T11:56:40;1.02;;;0.45;;
16314;SDS011;8266;52.150;4.768;2022-11-04T11:59:14;0.30;;;0.30;;
16314;SDS011;8266;52.150;4.768;2022-11-04T12:01:49;2.28;;;0.40;;
16314;SDS011;8266;52.150;4.768;2022-11-04T12:04:24;1.38;;;0.32;;
16314;SDS011;8266;52.150;4.768;2022-11-04T12:06:54;0.75;;;0.30;;
16314;SDS011;8266;52.150;4.768;2022-11-04T12:09:31;0.32;;;0.20;;
16314;SDS011;8266;52.150;4.768;2022-11-04T12:12:04;0.20;;;0.20;;
16314;SDS011;8266;52.150;4.768;2022-11-04T12:14:49;0.80;;;0.32;;
16314;SDS011;8266;52.150;4.768;2022-11-04T12:17:38;2.00;;;0.50;;
16314;SDS011;8266;52.150;4.768;2022-11-04T12:20:20;0.95;;;0.32;;
16314;SDS011;8266;52.150;4.768;2022-11-04T12:22:57;2.08;;;0.38;;
16314;SDS011;8266;52.150;4.768;2022-11-04T12:25:32;2.13;;;0.22;;
16314;SDS011;8266;52.150;4.768;2022-11-04T12:28:10;1.75;;;0.40;;
16314;SDS011;8266;52.150;4.768;2022-11-04T12:30:50;0.25;;;0.20;;
16314;SDS011;8266;52.150;4.768;2022-11-04T12:33:27;0.90;;;0.30;;
16314;SDS011;8266;52.150;4.768;2022-11-04T12:36:10;0.70;;;0.30;;
16314;SDS011;8266;52.150;4.768;2022-11-04T12:38:51;1.13;;;0.40;;
16314;SDS011;8266;52.150;4.768;2022-11-04T12:41:27;1.05;;;0.32;;
16314;SDS011;8266;52.150;4.768;2022-11-04T12:44:03;1.00;;;0.20;;
16314;SDS011;8266;52.150;4.768;2022-11-04T12:46:40;1.50;;;0.47;;
16314;SDS011;8266;52.150;4.768;2022-11-04T12:49:26;1.95;;;0.38;;
16314;SDS011;8266;52.150;4.768;2022-11-04T12:52:08;0.40;;;0.30;;
16314;SDS011;8266;52.150;4.768;2022-11-04T12:54:52;0.88;;;0.30;;
16314;SDS011;8266;52.150;4.768;2022-11-04T12:57:31;1.80;;;0.65;;
16314;SDS011;8266;52.150;4.768;2022-11-04T13:00:09;1.45;;;0.57;;
16314;SDS011;8266;52.150;4.768;2022-11-04T13:02:41;3.33;;;0.40;;
16314;SDS011;8266;52.150;4.768;2022-11-04T13:08:04;1.67;;;0.40;;
16314;SDS011;8266;52.150;4.768;2022-11-04T13:10:38;2.70;;;1.27;;
16314;SDS011;8266;52.150;4.768;2022-11-04T13:13:09;1.83;;;0.60;;
16314;SDS011;8266;52.150;4.768;2022-11-04T13:15:42;3.35;;;1.55;;
16314;SDS011;8266;52.150;4.768;2022-11-04T13:18:14;2.50;;;1.30;;
16314;SDS011;8266;52.150;4.768;2022-11-04T13:20:46;3.28;;;1.98;;
16314;SDS011;8266;52.150;4.768;2022-11-04T13:23:21;2.15;;;1.05;;
16314;SDS011;8266;52.150;4.768;2022-11-04T13:25:52;1.08;;;0.57;;
16314;SDS011;8266;52.150;4.768;2022-11-04T13:28:23;1.95;;;0.70;;
16314;SDS011;8266;52.150;4.768;2022-11-04T13:30:53;2.03;;;0.47;;
16314;SDS011;8266;52.150;4.768;2022-11-04T13:33:28;1.23;;;0.60;;
16314;SDS011;8266;52.150;4.768;2022-11-04T13:36:07;1.38;;;0.50;;
16314;SDS011;8266;52.150;4.768;2022-11-04T13:38:48;0.68;;;0.50;;
16314;SDS011;8266;52.150;4.768;2022-11-04T13:41:23;1.83;;;0.50;;
16314;SDS011;8266;52.150;4.768;2022-11-04T13:44:12;3.63;;;0.40;;
16314;SDS011;8266;52.150;4.768;2022-11-04T13:46:45;1.42;;;0.43;;
16314;SDS011;8266;52.150;4.768;2022-11-04T13:49:17;0.60;;;0.30;;
16314;SDS011;8266;52.150;4.768;2022-11-04T13:52:01;1.73;;;0.43;;
16314;SDS011;8266;52.150;4.768;2022-11-04T13:54:35;1.88;;;0.40;;
16314;SDS011;8266;52.150;4.768;2022-11-04T13:57:07;1.15;;;0.50;;
16314;SDS011;8266;52.150;4.768;2022-11-04T13:59:37;2.20;;;0.50;;
16314;SDS011;8266;52.150;4.768;2022-11-04T14:02:23;1.67;;;0.68;;
16314;SDS011;8266;52.150;4.768;2022-11-04T14:08:17;2.67;;;0.40;;
16314;SDS011;8266;52.150;4.768;2022-11-04T14:10:56;2.38;;;0.73;;
16314;SDS011;8266;52.150;4.768;2022-11-04T14:13:44;4.07;;;0.73;;
16314;SDS011;8266;52.150;4.768;2022-11-04T14:22:13;1.95;;;0.80;;
16314;SDS011;8266;52.150;4.768;2022-11-04T14:24:42;3.10;;;0.80;;
16314;SDS011;8266;52.150;4.768;2022-11-04T14:27:23;1.90;;;0.63;;
16314;SDS011;8266;52.150;4.768;2022-11-04T14:29:52;2.60;;;0.70;;
16314;SDS011;8266;52.150;4.768;2022-11-04T14:32:21;1.48;;;0.65;;
16314;SDS011;8266;52.150;4.768;2022-11-04T14:34:56;0.75;;;0.50;;
16314;SDS011;8266;52.150;4.768;2022-11-04T14:37:27;0.98;;;0.43;;
16314;SDS011;8266;52.150;4.768;2022-11-04T14:39:58;2.00;;;0.40;;
16314;SDS011;8266;52.150;4.768;2022-11-04T14:42:44;1.92;;;0.63;;
16314;SDS011;8266;52.150;4.768;2022-11-04T14:45:16;2.22;;;1.00;;
16314;SDS011;8266;52.150;4.768;2022-11-04T14:47:50;1.27;;;0.50;;
16314;SDS011;8266;52.150;4.768;2022-11-04T14:50:22;2.15;;;0.60;;
16314;SDS011;8266;52.150;4.768;2022-11-04T14:52:53;1.48;;;0.68;;
16314;SDS011;8266;52.150;4.768;2022-11-04T14:55:23;2.05;;;0.65;;
16314;SDS011;8266;52.150;4.768;2022-11-04T14:57:56;1.83;;;0.70;;
16314;SDS011;8266;52.150;4.768;2022-11-04T15:00:30;1.30;;;0.60;;
16314;SDS011;8266;52.150;4.768;2022-11-04T15:03:02;1.10;;;0.60;;
16314;SDS011;8266;52.150;4.768;2022-11-04T15:05:45;1.27;;;0.63;;
16314;SDS011;8266;52.150;4.768;2022-11-04T15:08:27;1.20;;;0.63;;
16314;SDS011;8266;52.150;4.768;2022-11-04T15:11:04;2.65;;;0.80;;
16314;SDS011;8266;52.150;4.768;2022-11-04T15:13:38;1.85;;;0.60;;
16314;SDS011;8266;52.150;4.768;2022-11-04T15:16:12;2.80;;;0.73;;
16314;SDS011;8266;52.150;4.768;2022-11-04T15:18:42;3.05;;;0.90;;
16314;SDS011;8266;52.150;4.768;2022-11-04T15:21:10;1.92;;;0.90;;
16314;SDS011;8266;52.150;4.768;2022-11-04T15:23:38;2.53;;;0.77;;
16314;SDS011;8266;52.150;4.768;2022-11-04T15:26:19;2.47;;;1.00;;
16314;SDS011;8266;52.150;4.768;2022-11-04T15:28:49;4.45;;;1.10;;
16314;SDS011;8266;52.150;4.768;2022-11-04T15:31:18;3.88;;;1.58;;
16314;SDS011;8266;52.150;4.768;2022-11-04T15:33:47;3.08;;;1.48;;
16314;SDS011;8266;52.150;4.768;2022-11-04T15:36:16;2.40;;;0.90;;
16314;SDS011;8266;52.150;4.768;2022-11-04T15:38:48;2.67;;;1.30;;
16314;SDS011;8266;52.150;4.768;2022-11-04T15:41:19;2.05;;;1.10;;
16314;SDS011;8266;52.150;4.768;2022-11-04T15:44:07;1.98;;;1.00;;